Campanya meteocatpedra

Dades EMA Pantà de Riba-roja

?
?
Resum diari 22:30 TU
Dades diàries de l'estació meteorològica
Temperatura mitjana 23.5 °C
Temperatura màxima 31.6 °C 12:45 TU
Temperatura mínima 14.5 °C 4:32 TU
Humitat relativa mitjana 47%
Precipitació acumulada 0.0 mm
Ratxa màxima del vent (2 m) 31.0 km/h - 102º 16:41 TU
Irradiació solar global 31.4 MJ/m2

El tram horari està expressat en Temps Universal (TU). Cal sumar una hora en horari d'hivern i dues en horari d'estiu per passar a l'hora oficial.

Pantà de Riba-roja

Metadades estació meteorol´gica
Municipi Riba-roja d'Ebre
Comarca Ribera d'Ebre
Altitud 69 m
Data alta 18.11.1996
Estat actual Operativa
Dades de període
Període
TU
TM
°C
TX
°C
TN
°C
HRM
%
PPT
mm
VVM (2 m)
km/h
DVM (2 m)
graus
VVX (2 m)
km/h
RS
W/m2
00:00 - 00:30 17.5 17.9 17.3 71 0.0 2.5 153 4.3 0
00:30 - 01:00 17.2 17.5 16.9 72 0.0 2.5 139 4.7 0
01:00 - 01:30 16.7 17.0 16.5 75 0.0 2.2 156 4.0 0
01:30 - 02:00 16.3 16.5 15.8 76 0.0 2.2 167 5.0 0
02:00 - 02:30 15.7 15.8 15.6 79 0.0 1.4 164 6.1 0
02:30 - 03:00 15.6 15.8 15.4 79 0.0 1.4 143 5.0 0
03:00 - 03:30 15.4 15.6 15.3 79 0.0 1.8 139 4.7 0
03:30 - 04:00 15.1 15.3 15.0 82 0.0 1.4 138 4.3 0
04:00 - 04:30 14.8 15.0 14.5 83 0.0 2.2 135 4.7 1
04:30 - 05:00 14.6 14.8 14.5 84 0.0 0.7 153 4.0 12
05:00 - 05:30 15.1 15.4 14.8 82 0.0 3.2 358 5.4 32
05:30 - 06:00 16.8 18.0 15.5 75 0.0 1.4 82 4.3 157
06:00 - 06:30 17.4 17.7 17.2 71 0.0 3.2 352 4.7 257
06:30 - 07:00 17.9 18.1 17.7 70 0.0 4.7 353 6.8 357
07:00 - 07:30 18.9 19.3 18.2 65 0.0 7.2 3 9.4 460
07:30 - 08:00 20.1 21.1 19.3 61 0.0 8.3 25 10.8 557
08:00 - 08:30 21.7 22.2 21.2 55 0.0 7.2 18 9.0 648
08:30 - 09:00 22.8 23.5 22.3 51 0.0 7.2 12 8.6 729
09:00 - 09:30 24.9 25.8 23.6 41 0.0 2.2 355 6.8 802
09:30 - 10:00 27.3 28.3 25.8 33 0.0 0.7 268 4.0 869
10:00 - 10:30 28.0 28.3 27.7 34 0.0 1.4 322 5.8 919
10:30 - 11:00 28.1 28.7 27.7 33 0.0 2.2 269 7.2 955
11:00 - 11:30 29.3 30.1 28.5 28 0.0 2.9 150 10.4 979
11:30 - 12:00 29.8 30.4 29.4 23 0.0 6.5 59 14.4 997
12:00 - 12:30 30.5 30.9 30.1 21 0.0 6.5 33 17.3 998
12:30 - 13:00 31.1 31.6 30.6 20 0.0 5.0 77 18.0 984
13:00 - 13:30 31.3 31.6 31.2 21 0.0 6.1 88 24.5 954
13:30 - 14:00 31.2 31.4 31.0 22 0.0 6.5 71 20.2 917
14:00 - 14:30 31.4 31.6 31.0 22 0.0 5.4 69 22.0 865
14:30 - 15:00 31.0 31.2 30.7 24 0.0 7.6 74 24.1 799
15:00 - 15:30 30.5 30.8 30.3 25 0.0 9.0 73 29.5 726
15:30 - 16:00 30.1 30.4 29.7 24 0.0 7.9 63 20.9 644
16:00 - 16:30 29.8 30.1 29.7 23 0.0 7.9 59 21.6 553
16:30 - 17:00 29.9 30.1 29.6 22 0.0 9.7 89 31.0 455
17:00 - 17:30 29.6 29.8 29.4 22 0.0 8.6 89 28.1 354
17:30 - 18:00 29.3 29.6 29.2 22 0.0 7.6 91 26.3 251
18:00 - 18:30 29.0 29.3 28.5 22 0.0 5.8 71 19.1 154
18:30 - 19:00 28.1 28.5 27.4 24 0.0 4.0 65 10.1 52
19:00 - 19:30 26.6 27.3 25.6 28 0.0 6.8 67 16.2 8
19:30 - 20:00 25.2 25.6 24.8 33 0.0 4.3 60 9.0 0
20:00 - 20:30 24.5 24.8 24.2 35 0.0 3.2 79 7.6 0
20:30 - 21:00 23.4 24.1 22.8 39 0.0 2.2 131 4.7 0
21:00 - 21:30 22.7 23.1 21.9 41 0.0 2.5 123 6.5 0
21:30 - 22:00 21.2 21.9 20.5 48 0.0 2.5 144 6.1 0
22:00 - 22:30 20.2 20.5 19.8 50 0.0 3.2 151 5.4 0
22:30 - 23:00 19.2 19.8 18.5 54 0.0 3.6 159 5.8 0
23:00 - 23:30 (s/d) (s/d) (s/d) (s/d) (s/d) (s/d) (s/d) (s/d) (s/d)

Les dades en taronja només han passat un control de qualitat automàtic. Resta pendent la seva validació definitiva.